createdAt,value
2018-05-14T00:00:20.664Z,16.80
2018-05-14T00:02:49.984Z,16.80
2018-05-14T00:05:20.102Z,16.70
2018-05-14T00:07:49.403Z,16.70
2018-05-14T00:10:18.705Z,16.70
2018-05-14T00:12:48.006Z,16.70
2018-05-14T00:15:17.254Z,16.70
2018-05-14T00:17:46.609Z,16.70
2018-05-14T00:20:15.909Z,16.70
2018-05-14T00:22:45.204Z,16.70
2018-05-14T00:25:14.512Z,16.70
2018-05-14T00:27:43.813Z,16.70
2018-05-14T00:30:13.012Z,16.70
2018-05-14T00:32:42.314Z,16.60
2018-05-14T00:35:11.558Z,16.60
2018-05-14T00:37:40.915Z,16.60
2018-05-14T00:40:10.214Z,16.60
2018-05-14T00:42:41.059Z,16.50
2018-05-14T00:45:10.460Z,16.60
2018-05-14T00:47:39.758Z,16.60
2018-05-14T00:50:09.164Z,16.60
2018-05-14T00:52:38.465Z,16.60
2018-05-14T00:55:18.619Z,16.50
2018-05-14T00:57:47.922Z,16.50
2018-05-14T01:00:17.225Z,16.60
2018-05-14T01:02:47.350Z,16.50
2018-05-14T01:05:17.463Z,16.60
2018-05-14T01:07:48.257Z,16.60
2018-05-14T01:10:17.601Z,16.60
2018-05-14T01:12:46.902Z,16.50
2018-05-14T01:15:16.284Z,16.50
2018-05-14T01:17:45.595Z,16.50
2018-05-14T01:20:14.910Z,16.40
2018-05-14T01:22:44.210Z,16.40
2018-05-14T01:25:13.511Z,16.30
2018-05-14T01:27:42.813Z,16.30
2018-05-14T01:30:12.115Z,16.30
2018-05-14T01:32:41.417Z,16.30
2018-05-14T01:35:11.535Z,16.30
2018-05-14T01:37:40.838Z,16.30
2018-05-14T01:40:10.138Z,16.30
2018-05-14T01:42:39.444Z,16.30
2018-05-14T01:45:08.741Z,16.20
2018-05-14T01:47:38.041Z,16.30
2018-05-14T01:50:07.343Z,16.20
2018-05-14T01:52:36.644Z,16.20
2018-05-14T01:55:06.984Z,16.20
2018-05-14T01:57:37.097Z,16.20
2018-05-14T02:00:07.208Z,16.20
2018-05-14T02:02:36.512Z,16.20
2018-05-14T02:05:05.814Z,16.20
2018-05-14T02:07:35.115Z,16.10
2018-05-14T02:10:04.518Z,16.20
2018-05-14T02:12:33.810Z,16.20
2018-05-14T02:15:03.120Z,16.20
2018-05-14T02:17:32.422Z,16.20
2018-05-14T02:20:01.770Z,16.20
2018-05-14T02:22:31.040Z,16.20
2018-05-14T02:25:00.326Z,16.30
2018-05-14T02:27:29.628Z,16.30
2018-05-14T02:29:58.928Z,16.30
2018-05-14T02:32:28.230Z,16.20
2018-05-14T02:34:57.531Z,16.30
2018-05-14T02:37:26.831Z,16.30
2018-05-14T02:39:56.133Z,16.30
2018-05-14T02:42:26.152Z,16.20
2018-05-14T02:44:55.436Z,16.10
2018-05-14T02:47:24.753Z,16.20
2018-05-14T02:49:54.053Z,16.20
2018-05-14T02:52:23.357Z,16.20
2018-05-14T02:54:52.651Z,16.20
2018-05-14T02:57:21.959Z,16.10
2018-05-14T02:59:52.079Z,16.20
2018-05-14T03:02:21.371Z,16.20
2018-05-14T03:04:50.756Z,16.10
2018-05-14T03:07:20.800Z,16.10
2018-05-14T03:09:50.103Z,16.10
2018-05-14T03:12:19.404Z,16.10
2018-05-14T03:14:48.706Z,16.10
2018-05-14T03:17:18.012Z,16.10
2018-05-14T03:19:48.129Z,16.10
2018-05-14T03:22:17.428Z,16.10
2018-05-14T03:24:46.733Z,16.10
2018-05-14T03:27:16.880Z,16.10
2018-05-14T03:29:46.253Z,16.10
2018-05-14T03:32:16.356Z,16.10
2018-05-14T03:34:45.675Z,16.10
2018-05-14T03:37:14.976Z,16.10
2018-05-14T03:39:44.282Z,16.10
2018-05-14T03:42:14.294Z,16.10
2018-05-14T03:44:43.582Z,16.10
2018-05-14T03:47:12.898Z,16.10
2018-05-14T03:49:42.201Z,16.10
2018-05-14T03:52:12.320Z,16.10
2018-05-14T03:54:41.626Z,16.10
2018-05-14T03:57:11.741Z,16.20
2018-05-14T03:59:59.066Z,16.10
2018-05-14T04:02:46.801Z,16.20
2018-05-14T04:05:20.036Z,16.20
2018-05-14T04:07:49.395Z,16.20
2018-05-14T04:10:18.698Z,16.10
2018-05-14T04:12:47.998Z,16.10
2018-05-14T04:15:17.291Z,16.20
2018-05-14T04:17:46.598Z,16.20
2018-05-14T04:20:16.005Z,16.10
2018-05-14T04:22:46.126Z,16.10
2018-05-14T04:25:15.426Z,16.10
2018-05-14T04:27:44.751Z,16.20
2018-05-14T04:30:14.075Z,16.10
2018-05-14T04:32:43.432Z,16.10
2018-05-14T04:35:12.734Z,16.10
2018-05-14T04:37:42.035Z,16.10
2018-05-14T04:40:11.320Z,16.10
2018-05-14T04:42:40.637Z,16.10
2018-05-14T04:45:09.938Z,16.10
2018-05-14T04:47:39.242Z,16.10
2018-05-14T04:50:08.543Z,16.00
2018-05-14T04:52:37.845Z,16.10
2018-05-14T04:55:07.963Z,16.00
2018-05-14T04:57:37.265Z,16.00
2018-05-14T05:00:06.566Z,16.00
2018-05-14T05:02:36.685Z,16.00
2018-05-14T05:05:06.075Z,16.10
2018-05-14T05:07:36.927Z,16.20
2018-05-14T05:10:06.227Z,16.20
2018-05-14T05:12:35.530Z,16.30
2018-05-14T05:15:04.831Z,16.30
2018-05-14T05:17:34.127Z,16.40
2018-05-14T05:20:03.433Z,16.40
2018-05-14T05:22:32.735Z,16.50
2018-05-14T05:25:02.036Z,16.50
2018-05-14T05:27:31.337Z,16.50
2018-05-14T05:30:01.457Z,16.50
2018-05-14T05:32:30.744Z,16.40
2018-05-14T05:35:00.059Z,16.40
2018-05-14T05:37:29.352Z,16.40
2018-05-14T05:39:58.608Z,16.40
2018-05-14T05:42:27.958Z,16.40
2018-05-14T05:44:58.073Z,16.30
2018-05-14T05:47:27.387Z,16.30
2018-05-14T05:49:56.687Z,16.30
2018-05-14T05:52:25.999Z,16.20
2018-05-14T05:54:55.285Z,16.20
2018-05-14T05:57:24.590Z,16.20
2018-05-14T05:59:53.894Z,16.10
2018-05-14T06:02:23.181Z,16.10
2018-05-14T06:04:52.493Z,16.10
2018-05-14T06:07:21.785Z,16.10
2018-05-14T06:09:51.053Z,16.20
2018-05-14T06:12:20.294Z,16.20
2018-05-14T06:14:50.412Z,16.30
2018-05-14T06:17:19.717Z,16.30
2018-05-14T06:19:49.015Z,16.40
2018-05-14T06:22:18.403Z,16.40
2018-05-14T06:24:47.722Z,16.40
2018-05-14T06:27:17.010Z,16.50
2018-05-14T06:29:46.325Z,16.50
2018-05-14T06:32:15.625Z,16.50
2018-05-14T06:34:44.928Z,16.50
2018-05-14T06:37:14.229Z,16.60
2018-05-14T06:39:43.537Z,16.60
2018-05-14T06:42:13.651Z,16.60
2018-05-14T06:44:42.952Z,16.70
2018-05-14T06:47:12.254Z,16.70
2018-05-14T06:49:41.553Z,16.80
2018-05-14T06:52:10.859Z,16.70
2018-05-14T06:54:40.156Z,16.80
2018-05-14T06:57:09.459Z,16.80
2018-05-14T06:59:38.760Z,16.90
2018-05-14T07:02:08.060Z,17.00
2018-05-14T07:04:37.366Z,17.20
2018-05-14T07:07:07.488Z,17.50
2018-05-14T07:09:37.505Z,17.60
2018-05-14T07:12:06.804Z,17.60
2018-05-14T07:14:36.922Z,18.00
2018-05-14T07:17:06.987Z,18.30
2018-05-14T07:19:37.164Z,18.40
2018-05-14T07:22:06.464Z,18.40
2018-05-14T07:24:35.766Z,18.60
2018-05-14T07:27:05.068Z,18.80
2018-05-14T07:29:34.371Z,18.90
2018-05-14T07:32:03.669Z,19.00
2018-05-14T07:34:33.079Z,19.10
2018-05-14T07:37:02.374Z,19.20
2018-05-14T07:39:33.210Z,19.20
2018-05-14T07:42:02.514Z,19.30
2018-05-14T07:44:32.633Z,19.30
2018-05-14T07:47:01.935Z,19.30
2018-05-14T07:49:31.223Z,19.30
2018-05-14T07:52:00.537Z,19.30
2018-05-14T07:54:29.964Z,19.30
2018-05-14T07:56:59.244Z,19.30
2018-05-14T07:59:28.543Z,19.30
2018-05-14T08:01:57.844Z,19.40
2018-05-14T08:04:27.144Z,19.50
2018-05-14T08:06:56.447Z,19.50
2018-05-14T08:09:25.748Z,19.60
2018-05-14T08:11:55.868Z,19.90
2018-05-14T08:14:25.177Z,19.90
2018-05-14T08:16:55.293Z,20.10
2018-05-14T08:19:24.593Z,20.00
2018-05-14T08:21:54.699Z,20.30
2018-05-14T08:24:24.013Z,20.30
2018-05-14T08:26:53.319Z,20.30
2018-05-14T08:29:23.441Z,20.60
2018-05-14T08:31:53.561Z,20.70
2018-05-14T08:34:23.676Z,20.90
2018-05-14T08:36:52.922Z,20.80
2018-05-14T08:39:22.177Z,21.00
2018-05-14T08:41:51.478Z,21.20
2018-05-14T08:44:20.741Z,21.40
2018-05-14T08:46:50.078Z,21.60
2018-05-14T08:49:19.380Z,21.80
2018-05-14T08:51:48.687Z,22.00
2018-05-14T08:54:18.920Z,22.40
2018-05-14T08:56:48.207Z,22.40
2018-05-14T08:59:17.513Z,22.40
2018-05-14T09:01:46.807Z,22.40
2018-05-14T09:04:16.367Z,22.30
2018-05-14T09:06:45.410Z,22.20
2018-05-14T09:09:14.711Z,22.10
2018-05-14T09:11:44.015Z,22.20
2018-05-14T09:14:13.317Z,22.10
2018-05-14T09:16:42.617Z,22.10
2018-05-14T09:19:11.936Z,22.20
2018-05-14T09:21:41.218Z,22.30
2018-05-14T09:24:10.468Z,22.30
2018-05-14T09:26:39.805Z,22.30
2018-05-14T09:29:09.123Z,22.20
2018-05-14T09:31:38.424Z,22.10
2018-05-14T09:34:07.724Z,22.00
2018-05-14T09:36:37.027Z,22.00
2018-05-14T09:39:06.429Z,21.90
2018-05-14T09:41:35.731Z,21.90
2018-05-14T09:44:05.032Z,22.00
2018-05-14T09:46:34.333Z,22.00
2018-05-14T09:49:04.346Z,22.20
2018-05-14T09:51:33.652Z,22.10
2018-05-14T09:54:02.953Z,22.40
2018-05-14T09:56:33.074Z,22.60
2018-05-14T09:59:02.375Z,22.60
2018-05-14T10:01:31.678Z,22.80
2018-05-14T10:04:00.977Z,22.90
2018-05-14T10:06:30.277Z,23.00
2018-05-14T10:08:59.580Z,23.20
2018-05-14T10:11:28.882Z,23.50
2018-05-14T10:13:58.181Z,23.90
2018-05-14T10:16:27.484Z,23.90
2018-05-14T10:18:56.785Z,23.80
2018-05-14T10:21:26.076Z,23.70
2018-05-14T10:23:55.387Z,23.60
2018-05-14T10:26:24.688Z,23.60
2018-05-14T10:28:53.993Z,23.60
2018-05-14T10:31:23.291Z,23.60
2018-05-14T10:33:52.534Z,23.50
2018-05-14T10:36:21.791Z,23.50
2018-05-14T10:38:51.095Z,23.50
2018-05-14T10:41:20.375Z,23.60
2018-05-14T10:43:49.695Z,23.60
2018-05-14T10:46:19.005Z,23.70
2018-05-14T10:48:49.122Z,23.80
2018-05-14T10:51:18.419Z,23.80
2018-05-14T10:53:47.704Z,23.80
2018-05-14T10:56:17.021Z,23.70
2018-05-14T10:58:46.429Z,23.70
2018-05-14T11:01:15.725Z,23.70
2018-05-14T11:03:45.027Z,23.80
2018-05-14T11:06:14.327Z,23.80
2018-05-14T11:08:43.629Z,23.70
2018-05-14T11:11:12.930Z,23.70
2018-05-14T11:13:42.232Z,23.90
2018-05-14T11:16:11.532Z,24.00
2018-05-14T11:18:41.663Z,24.50
2018-05-14T11:21:11.052Z,24.50
2018-05-14T11:23:41.176Z,24.90
2018-05-14T11:26:10.481Z,24.90
2018-05-14T11:28:39.779Z,25.00
2018-05-14T11:31:09.080Z,25.00
2018-05-14T11:33:38.325Z,25.00
2018-05-14T11:36:07.683Z,24.90
2018-05-14T11:38:36.984Z,24.70
2018-05-14T11:41:06.285Z,24.50
2018-05-14T11:43:35.588Z,24.30
2018-05-14T11:46:04.889Z,23.90
2018-05-14T11:48:34.188Z,23.70
2018-05-14T11:51:04.214Z,23.30
2018-05-14T11:53:34.327Z,23.20
2018-05-14T11:56:03.574Z,23.20
2018-05-14T11:58:32.829Z,23.20
2018-05-14T12:01:02.130Z,23.20
2018-05-14T12:03:31.419Z,23.30
2018-05-14T12:06:00.731Z,23.60
2018-05-14T12:08:30.126Z,23.90
2018-05-14T12:10:59.435Z,24.10
2018-05-14T12:13:29.556Z,24.50
2018-05-14T12:15:58.943Z,24.40
2018-05-14T12:18:28.167Z,24.70
2018-05-14T12:20:58.280Z,25.20
2018-05-14T12:23:27.582Z,25.10
2018-05-14T12:25:56.882Z,25.30
2018-05-14T12:28:26.182Z,25.40
2018-05-14T12:30:55.531Z,25.50
2018-05-14T12:33:24.785Z,25.60
2018-05-14T12:35:54.072Z,25.70
2018-05-14T12:38:23.389Z,25.70
2018-05-14T12:40:52.689Z,25.80
2018-05-14T12:43:21.990Z,26.00
2018-05-14T12:45:51.293Z,25.90
2018-05-14T12:48:21.411Z,25.70
2018-05-14T12:50:50.717Z,25.70
2018-05-14T12:53:20.019Z,25.70
2018-05-14T12:55:50.134Z,25.90
2018-05-14T12:58:19.435Z,25.90
2018-05-14T13:00:48.730Z,26.00
2018-05-14T13:03:18.040Z,26.00
2018-05-14T13:05:47.288Z,25.90
2018-05-14T13:08:16.545Z,25.60
2018-05-14T13:10:46.661Z,25.30
2018-05-14T13:13:15.961Z,25.30
2018-05-14T13:15:45.205Z,25.30
2018-05-14T13:18:14.563Z,25.30
2018-05-14T13:20:43.864Z,25.20
2018-05-14T13:23:13.167Z,25.10
2018-05-14T13:25:42.468Z,25.00
2018-05-14T13:28:11.755Z,24.90
2018-05-14T13:30:41.071Z,24.90
2018-05-14T13:33:10.371Z,24.80
2018-05-14T13:35:39.677Z,24.70
2018-05-14T13:38:09.692Z,24.90
2018-05-14T13:40:38.981Z,24.90
2018-05-14T13:43:09.828Z,25.30
2018-05-14T13:45:39.131Z,25.30
2018-05-14T13:48:08.434Z,25.50
2018-05-14T13:50:37.732Z,25.70
2018-05-14T13:53:07.853Z,25.80
2018-05-14T13:55:37.152Z,25.90
2018-05-14T13:58:06.457Z,25.90
2018-05-14T14:00:35.758Z,25.90
2018-05-14T14:03:06.902Z,26.20
2018-05-14T14:05:36.193Z,26.20
2018-05-14T14:08:05.507Z,26.30
2018-05-14T14:10:34.809Z,26.50
2018-05-14T14:13:04.927Z,26.70
2018-05-14T14:15:34.228Z,26.70
2018-05-14T14:18:03.519Z,26.70
2018-05-14T14:20:32.832Z,26.50
2018-05-14T14:23:02.130Z,26.20
2018-05-14T14:25:31.433Z,26.00
2018-05-14T14:28:00.735Z,26.00
2018-05-14T14:30:30.035Z,26.10
2018-05-14T14:32:59.337Z,26.20
2018-05-14T14:35:28.629Z,26.30
2018-05-14T14:37:57.835Z,26.50
2018-05-14T14:40:27.135Z,26.60
2018-05-14T14:42:56.555Z,26.70
2018-05-14T14:45:26.665Z,26.60
2018-05-14T14:47:55.908Z,26.50
2018-05-14T14:50:25.162Z,26.40
2018-05-14T14:52:54.464Z,26.10
2018-05-14T14:55:23.765Z,25.90
2018-05-14T14:57:53.066Z,25.70
2018-05-14T15:00:22.316Z,25.40
2018-05-14T15:02:51.653Z,25.20
2018-05-14T15:05:20.968Z,25.10
2018-05-14T15:07:50.215Z,25.00
2018-05-14T15:10:19.575Z,24.90
2018-05-14T15:12:49.597Z,24.80
2018-05-14T15:15:19.710Z,24.70
2018-05-14T15:17:49.012Z,24.70
2018-05-14T15:20:18.314Z,24.70
2018-05-14T15:22:47.613Z,24.60
2018-05-14T15:25:16.918Z,24.60
2018-05-14T15:27:47.036Z,24.70
2018-05-14T15:30:16.335Z,24.70
2018-05-14T15:32:45.641Z,24.70
2018-05-14T15:35:14.939Z,24.70
2018-05-14T15:37:44.185Z,24.70
2018-05-14T15:40:13.545Z,24.60
2018-05-14T15:42:43.662Z,24.50
2018-05-14T15:45:12.969Z,24.50
2018-05-14T15:47:43.085Z,24.40
2018-05-14T15:50:12.386Z,24.40
2018-05-14T15:52:41.689Z,24.40
2018-05-14T15:55:11.806Z,24.30
2018-05-14T15:57:41.189Z,24.30
2018-05-14T16:00:10.408Z,24.30
2018-05-14T16:02:39.655Z,24.30
2018-05-14T16:05:08.908Z,24.20
2018-05-14T16:07:38.210Z,24.10
2018-05-14T16:10:08.226Z,24.20
2018-05-14T16:12:37.528Z,24.20
2018-05-14T16:15:06.832Z,24.30
2018-05-14T16:17:36.075Z,24.50
2018-05-14T16:20:05.434Z,24.50
2018-05-14T16:22:34.735Z,24.60
2018-05-14T16:25:04.146Z,24.50
2018-05-14T16:27:34.263Z,24.50
2018-05-14T16:30:04.461Z,24.40
2018-05-14T16:32:33.767Z,24.40
2018-05-14T16:35:03.083Z,24.30
2018-05-14T16:37:32.327Z,24.30
2018-05-14T16:40:01.587Z,24.20
2018-05-14T16:42:31.705Z,24.20
2018-05-14T16:45:00.998Z,24.10
2018-05-14T16:47:31.314Z,24.10
2018-05-14T16:50:00.633Z,24.10
2018-05-14T16:52:29.918Z,24.00
2018-05-14T16:54:59.246Z,23.90
2018-05-14T16:57:29.255Z,23.80
2018-05-14T16:59:59.371Z,23.70
2018-05-14T17:02:28.673Z,23.70
2018-05-14T17:04:57.972Z,23.70
2018-05-14T17:07:27.276Z,23.60
2018-05-14T17:09:56.578Z,23.50
2018-05-14T17:12:25.880Z,23.40
2018-05-14T17:14:56.000Z,23.20
2018-05-14T17:17:25.315Z,23.20
2018-05-14T17:19:54.705Z,23.20
2018-05-14T17:22:24.005Z,23.20
2018-05-14T17:24:53.298Z,23.10
2018-05-14T17:27:22.608Z,23.00
2018-05-14T17:29:51.855Z,22.90
2018-05-14T17:32:21.210Z,22.80
2018-05-14T17:34:50.513Z,22.90
2018-05-14T17:37:20.633Z,22.80
2018-05-14T17:39:49.933Z,22.80
2018-05-14T17:42:19.235Z,22.70
2018-05-14T17:44:48.535Z,22.70
2018-05-14T17:47:17.837Z,22.60
2018-05-14T17:49:47.958Z,22.40
2018-05-14T17:52:17.245Z,22.40
2018-05-14T17:54:46.560Z,22.30
2018-05-14T17:57:16.680Z,21.90
2018-05-14T17:59:45.983Z,21.90
2018-05-14T18:02:15.383Z,21.60
2018-05-14T18:04:44.687Z,21.30
2018-05-14T18:07:13.989Z,21.00
2018-05-14T18:09:43.187Z,20.80
2018-05-14T18:12:12.494Z,20.70
2018-05-14T18:14:42.510Z,20.40
2018-05-14T18:17:11.807Z,20.30
2018-05-14T18:19:46.741Z,20.30
2018-05-14T18:22:21.777Z,20.10
2018-05-14T18:24:51.078Z,20.00
2018-05-14T18:27:39.118Z,19.90
2018-05-14T18:30:14.465Z,19.80
2018-05-14T18:32:49.292Z,19.70
2018-05-14T18:35:21.157Z,19.60
2018-05-14T18:37:50.455Z,19.60
2018-05-14T18:40:19.760Z,19.50
2018-05-14T18:42:49.058Z,19.40
2018-05-14T18:45:18.358Z,19.30
2018-05-14T18:47:47.658Z,19.10
2018-05-14T18:50:16.960Z,19.00
2018-05-14T18:52:46.260Z,18.90
2018-05-14T18:55:15.557Z,18.90
2018-05-14T18:57:44.805Z,18.80
2018-05-14T19:00:14.166Z,18.70
2018-05-14T19:02:43.455Z,18.70
2018-05-14T19:05:12.722Z,18.60
2018-05-14T19:07:42.070Z,18.50
2018-05-14T19:10:17.105Z,18.40
2018-05-14T19:12:46.508Z,18.40
2018-05-14T19:15:21.381Z,18.40
2018-05-14T19:17:56.068Z,18.30
2018-05-14T19:20:25.473Z,18.40
2018-05-14T19:23:00.506Z,18.30
2018-05-14T19:25:29.808Z,18.40
2018-05-14T19:28:04.608Z,18.40
2018-05-14T19:30:34.044Z,18.30
2018-05-14T19:33:03.446Z,18.30
2018-05-14T19:35:38.278Z,18.30
2018-05-14T19:38:07.672Z,18.30
2018-05-14T19:40:42.613Z,18.30
2018-05-14T19:43:12.739Z,18.20
2018-05-14T19:45:42.139Z,18.10
2018-05-14T19:48:11.485Z,18.10
2018-05-14T19:50:40.844Z,18.10
2018-05-14T19:53:10.190Z,18.10
2018-05-14T19:55:39.553Z,18.10
2018-05-14T19:58:09.669Z,18.00
2018-05-14T20:00:38.970Z,18.00
2018-05-14T20:03:08.374Z,18.00
2018-05-14T20:05:37.677Z,18.00
2018-05-14T20:08:07.079Z,18.00
2018-05-14T20:10:37.199Z,17.90
2018-05-14T20:13:06.808Z,17.90
2018-05-14T20:15:36.101Z,17.90
2018-05-14T20:18:05.469Z,17.90
2018-05-14T20:20:34.814Z,17.80
2018-05-14T20:23:04.216Z,17.80
2018-05-14T20:25:33.528Z,17.70
2018-05-14T20:28:03.638Z,17.60
2018-05-14T20:30:32.943Z,17.60
2018-05-14T20:33:02.959Z,17.50
2018-05-14T20:35:32.251Z,17.50
2018-05-14T20:38:01.664Z,17.50
2018-05-14T20:40:31.783Z,17.50
2018-05-14T20:43:01.172Z,17.50
2018-05-14T20:45:30.488Z,17.40
2018-05-14T20:47:59.790Z,17.40
2018-05-14T20:50:29.194Z,17.40
2018-05-14T20:52:58.598Z,17.30
2018-05-14T20:55:27.999Z,17.30
2018-05-14T20:57:57.390Z,17.30
2018-05-14T21:00:26.733Z,17.20
2018-05-14T21:02:56.006Z,17.20
2018-05-14T21:05:25.410Z,17.20
2018-05-14T21:07:57.680Z,17.10
2018-05-14T21:10:27.068Z,17.10
2018-05-14T21:12:56.385Z,17.10
2018-05-14T21:15:25.788Z,17.00
2018-05-14T21:17:55.195Z,17.00
2018-05-14T21:20:24.480Z,16.90
2018-05-14T21:22:53.795Z,16.90
2018-05-14T21:25:23.095Z,16.90
2018-05-14T21:27:52.500Z,16.80
2018-05-14T21:30:21.801Z,16.80
2018-05-14T21:32:51.204Z,16.70
2018-05-14T21:35:20.496Z,16.70
2018-05-14T21:37:49.804Z,16.70
2018-05-14T21:40:19.103Z,16.60
2018-05-14T21:42:48.415Z,16.60
2018-05-14T21:45:17.813Z,16.50
2018-05-14T21:47:47.941Z,16.50
2018-05-14T21:50:18.098Z,16.50
2018-05-14T21:52:47.356Z,16.50
2018-05-14T21:55:16.759Z,16.50
2018-05-14T21:57:46.062Z,16.40
2018-05-14T22:00:15.465Z,16.40
2018-05-14T22:02:44.765Z,16.30
2018-05-14T22:05:14.070Z,16.30
2018-05-14T22:07:43.416Z,16.30
2018-05-14T22:10:12.775Z,16.20
2018-05-14T22:12:42.183Z,16.20
2018-05-14T22:15:12.296Z,16.10
2018-05-14T22:17:41.700Z,16.10
2018-05-14T22:20:11.005Z,16.00
2018-05-14T22:22:40.391Z,16.00
2018-05-14T22:25:09.706Z,15.90
2018-05-14T22:27:39.110Z,15.90
2018-05-14T22:30:08.410Z,15.90
2018-05-14T22:32:37.814Z,15.80
2018-05-14T22:35:07.115Z,15.80
2018-05-14T22:37:36.519Z,15.70
2018-05-14T22:40:05.824Z,15.70
2018-05-14T22:42:35.225Z,15.70
2018-05-14T22:45:04.571Z,15.70
2018-05-14T22:47:33.929Z,15.70
2018-05-14T22:50:03.232Z,15.70
2018-05-14T22:52:32.634Z,15.70
2018-05-14T22:55:02.742Z,15.60
2018-05-14T22:57:32.057Z,15.60
2018-05-14T23:00:01.664Z,15.60
2018-05-14T23:02:31.069Z,15.50
2018-05-14T23:05:00.473Z,15.50
2018-05-14T23:07:29.875Z,15.40
2018-05-14T23:09:59.282Z,15.40
2018-05-14T23:12:29.400Z,15.30
2018-05-14T23:14:58.802Z,15.30
2018-05-14T23:17:28.107Z,15.30
2018-05-14T23:19:57.507Z,15.30
2018-05-14T23:22:41.636Z,15.40
2018-05-14T23:25:10.958Z,15.30
2018-05-14T23:27:40.259Z,15.30
2018-05-14T23:30:09.665Z,15.30
2018-05-14T23:32:38.966Z,15.20
2018-05-14T23:35:09.085Z,15.20
2018-05-14T23:37:38.385Z,15.20
2018-05-14T23:40:07.688Z,15.20
2018-05-14T23:42:36.985Z,15.20
2018-05-14T23:45:06.275Z,15.10
2018-05-14T23:47:35.590Z,15.20
2018-05-14T23:50:04.893Z,15.10
2018-05-14T23:52:34.197Z,15.10
2018-05-14T23:55:03.486Z,15.10
2018-05-14T23:57:32.795Z,15.10
